createdAt,value
2019-02-27T00:00:31.161Z,15.37
2019-02-27T00:02:59.589Z,14.93
2019-02-27T00:05:28.056Z,14.73
2019-02-27T00:07:56.494Z,13.97
2019-02-27T00:10:24.950Z,14.93
2019-02-27T00:12:53.390Z,13.07
2019-02-27T00:15:21.846Z,13.33
2019-02-27T00:17:51.375Z,13.00
2019-02-27T00:20:20.605Z,13.60
2019-02-27T00:22:50.749Z,12.10
2019-02-27T00:25:19.238Z,12.40
2019-02-27T00:27:49.249Z,12.80
2019-02-27T00:30:17.926Z,12.73
2019-02-27T00:32:50.986Z,12.47
2019-02-27T00:35:16.545Z,11.90
2019-02-27T00:38:04.329Z,11.67
2019-02-27T00:40:32.847Z,13.07
2019-02-27T00:43:01.290Z,12.87
2019-02-27T00:45:29.745Z,13.47
2019-02-27T00:47:58.186Z,12.23
2019-02-27T00:50:26.630Z,13.30
2019-02-27T00:52:55.071Z,13.10
2019-02-27T00:55:23.526Z,14.40
2019-02-27T00:57:54.470Z,14.57
2019-02-27T01:00:22.204Z,13.77
2019-02-27T01:02:52.610Z,14.30
2019-02-27T01:05:20.842Z,12.90
2019-02-27T01:07:49.282Z,15.67
2019-02-27T01:10:17.730Z,14.83
2019-02-27T01:12:46.238Z,15.33
2019-02-27T01:15:14.929Z,13.90
2019-02-27T01:17:43.659Z,13.43
2019-02-27T01:20:14.068Z,14.37
2019-02-27T01:22:42.504Z,14.40
2019-02-27T01:25:10.947Z,14.57
2019-02-27T01:27:39.399Z,14.07
2019-02-27T01:30:16.077Z,15.40
2019-02-27T01:32:44.516Z,15.57
2019-02-27T01:35:17.475Z,16.10
2019-02-27T01:37:44.287Z,16.77
2019-02-27T01:40:17.231Z,16.20
2019-02-27T01:42:44.450Z,16.37
2019-02-27T01:45:15.343Z,17.00
2019-02-27T01:47:43.797Z,16.57
2019-02-27T01:50:32.839Z,16.03
2019-02-27T01:53:01.346Z,16.47
2019-02-27T01:55:29.860Z,16.93
2019-02-27T01:57:58.299Z,16.27
2019-02-27T02:00:26.757Z,16.13
2019-02-27T02:02:55.283Z,16.63
2019-02-27T02:05:27.165Z,15.47
2019-02-27T02:07:55.566Z,15.73
2019-02-27T02:10:28.001Z,15.30
2019-02-27T02:13:00.005Z,14.87
2019-02-27T02:15:47.857Z,17.40
2019-02-27T02:18:30.840Z,15.63
2019-02-27T02:21:05.058Z,15.30
2019-02-27T02:24:00.867Z,15.47
2019-02-27T02:26:44.122Z,15.77
2019-02-27T02:29:52.972Z,14.80
2019-02-27T02:32:28.244Z,13.93
2019-02-27T02:35:18.072Z,15.33
2019-02-27T02:37:52.255Z,14.00
2019-02-27T02:40:41.799Z,15.77
2019-02-27T02:43:32.830Z,14.93
2019-02-27T02:46:10.050Z,14.37
2019-02-27T02:48:44.278Z,15.03
2019-02-27T02:51:28.605Z,13.10
2019-02-27T02:54:06.687Z,13.93
2019-02-27T02:56:44.059Z,14.90
2019-02-27T02:59:30.873Z,13.70
2019-02-27T03:02:04.942Z,14.30
2019-02-27T03:04:48.429Z,13.73
2019-02-27T03:07:21.478Z,14.50
2019-02-27T03:10:11.153Z,13.63
2019-02-27T03:12:57.168Z,13.40
2019-02-27T03:15:31.413Z,14.23
2019-02-27T03:18:21.037Z,13.67
2019-02-27T03:21:12.384Z,14.60
2019-02-27T03:24:13.712Z,14.60
2019-02-27T03:26:59.570Z,13.00
2019-02-27T03:29:33.990Z,15.33
2019-02-27T03:32:11.721Z,15.73
2019-02-27T03:34:54.870Z,15.43
2019-02-27T03:37:32.294Z,15.63
2019-02-27T03:40:10.609Z,16.10
2019-02-27T03:42:58.852Z,15.43
2019-02-27T03:45:58.941Z,15.10
2019-02-27T03:49:06.357Z,14.43
2019-02-27T03:52:00.112Z,15.20
2019-02-27T03:55:01.097Z,13.60
2019-02-27T03:57:55.149Z,14.17
2019-02-27T04:00:25.403Z,14.30
2019-02-27T04:03:05.184Z,13.80
2019-02-27T04:06:21.520Z,14.50
2019-02-27T04:08:57.454Z,13.97
2019-02-27T04:11:27.664Z,13.40
2019-02-27T04:14:03.310Z,14.23
2019-02-27T04:16:29.265Z,14.53
2019-02-27T04:19:02.708Z,14.53
2019-02-27T04:21:26.840Z,14.37
2019-02-27T04:23:55.279Z,15.37
2019-02-27T04:26:23.781Z,15.30
2019-02-27T04:28:52.286Z,16.50
2019-02-27T04:31:20.758Z,16.27
2019-02-27T04:33:49.205Z,16.63
2019-02-27T04:36:17.684Z,16.67
2019-02-27T04:38:46.206Z,16.40
2019-02-27T04:41:17.821Z,17.27
2019-02-27T04:43:44.832Z,18.07
2019-02-27T04:46:13.334Z,17.57
2019-02-27T04:48:41.783Z,16.97
2019-02-27T04:51:10.247Z,16.70
2019-02-27T04:53:40.696Z,17.60
2019-02-27T04:56:08.873Z,20.93
2019-02-27T04:58:37.326Z,22.87
2019-02-27T05:01:05.776Z,18.67
2019-02-27T05:03:34.231Z,17.40
2019-02-27T05:06:02.716Z,16.43
2019-02-27T05:08:31.221Z,16.70
2019-02-27T05:10:59.689Z,16.87
2019-02-27T05:13:28.182Z,16.40
2019-02-27T05:15:56.638Z,16.97
2019-02-27T05:18:29.285Z,17.50
2019-02-27T05:20:55.272Z,16.90
2019-02-27T05:23:23.736Z,17.20
2019-02-27T05:25:52.182Z,18.87
2019-02-27T05:28:20.641Z,18.50
2019-02-27T05:30:49.071Z,19.50
2019-02-27T05:33:17.540Z,19.17
2019-02-27T05:35:45.983Z,18.03
2019-02-27T05:38:14.440Z,17.70
2019-02-27T05:40:42.892Z,18.37
2019-02-27T05:43:13.904Z,17.47
2019-02-27T05:45:41.545Z,17.87
2019-02-27T05:48:09.999Z,17.07
2019-02-27T05:50:38.444Z,18.43
2019-02-27T05:53:06.902Z,17.10
2019-02-27T05:55:39.011Z,17.77
2019-02-27T05:58:05.564Z,17.97
2019-02-27T06:00:34.010Z,18.53
2019-02-27T06:03:02.481Z,17.87
2019-02-27T06:05:33.685Z,17.13
2019-02-27T06:08:02.326Z,17.33
2019-02-27T06:10:31.289Z,18.90
2019-02-27T06:12:59.769Z,17.77
2019-02-27T06:15:29.184Z,17.97
2019-02-27T06:17:57.813Z,17.43
2019-02-27T06:20:26.267Z,16.83
2019-02-27T06:22:54.746Z,16.60
2019-02-27T06:25:23.925Z,18.00
2019-02-27T06:27:52.676Z,31.23
2019-02-27T06:30:24.110Z,29.60
2019-02-27T06:32:52.583Z,18.83
2019-02-27T06:35:21.048Z,18.97
2019-02-27T06:37:50.773Z,19.70
2019-02-27T06:40:19.748Z,19.73
2019-02-27T06:42:48.198Z,33.50
2019-02-27T06:45:19.390Z,23.50
2019-02-27T06:47:47.841Z,18.70
2019-02-27T06:50:17.121Z,19.57
2019-02-27T06:52:45.566Z,19.13
2019-02-27T06:55:14.860Z,19.80
2019-02-27T06:57:43.556Z,19.27
2019-02-27T07:00:22.530Z,19.20
2019-02-27T07:02:55.256Z,19.63
2019-02-27T07:05:21.152Z,19.43
2019-02-27T07:07:49.637Z,19.83
2019-02-27T07:10:20.062Z,20.47
2019-02-27T07:12:49.161Z,19.17
2019-02-27T07:15:23.562Z,19.93
2019-02-27T07:17:52.004Z,19.50
2019-02-27T07:20:23.806Z,20.03
2019-02-27T07:22:50.652Z,20.57
2019-02-27T07:25:19.275Z,19.20
2019-02-27T07:27:47.923Z,19.73
2019-02-27T07:30:20.297Z,19.23
2019-02-27T07:32:48.774Z,24.63
2019-02-27T07:35:17.353Z,31.23
2019-02-27T07:37:48.107Z,30.23
2019-02-27T07:40:20.036Z,21.53
2019-02-27T07:42:48.490Z,29.53
2019-02-27T07:45:18.476Z,32.27
2019-02-27T07:47:47.024Z,29.07
2019-02-27T07:50:17.215Z,23.17
2019-02-27T07:52:45.650Z,22.00
2019-02-27T07:55:21.797Z,20.20
2019-02-27T07:57:48.119Z,21.53
2019-02-27T08:00:18.888Z,20.03
2019-02-27T08:02:47.390Z,20.77
2019-02-27T08:05:15.839Z,20.93
2019-02-27T08:07:48.713Z,21.27
2019-02-27T08:10:17.344Z,20.50
2019-02-27T08:12:45.971Z,20.73
2019-02-27T08:15:21.738Z,21.37
2019-02-27T08:17:50.434Z,20.83
2019-02-27T08:20:21.011Z,21.40
2019-02-27T08:22:49.745Z,22.47
2019-02-27T08:25:24.024Z,21.70
2019-02-27T08:27:54.247Z,21.60
2019-02-27T08:30:28.168Z,21.52
2019-02-27T08:32:56.809Z,22.48
2019-02-27T08:35:25.340Z,21.95
2019-02-27T08:38:02.234Z,21.52
2019-02-27T08:40:25.111Z,19.27
2019-02-27T08:42:53.760Z,23.02
2019-02-27T08:45:26.842Z,21.97
2019-02-27T08:47:52.383Z,22.60
2019-02-27T08:50:24.475Z,22.37
2019-02-27T08:52:52.916Z,21.60
2019-02-27T08:55:22.437Z,22.58
2019-02-27T08:57:56.891Z,21.27
2019-02-27T09:00:25.634Z,20.27
2019-02-27T09:02:55.650Z,22.02
2019-02-27T09:05:24.325Z,20.57
2019-02-27T09:07:52.765Z,19.95
2019-02-27T09:10:42.068Z,21.80
2019-02-27T09:13:10.572Z,21.60
2019-02-27T09:15:39.032Z,21.12
2019-02-27T09:18:07.464Z,21.13
2019-02-27T09:20:35.913Z,20.77
2019-02-27T09:23:04.344Z,23.25
2019-02-27T09:25:32.779Z,20.65
2019-02-27T09:28:01.245Z,22.45
2019-02-27T09:30:30.218Z,22.60
2019-02-27T09:32:58.838Z,22.95
2019-02-27T09:35:27.293Z,21.12
2019-02-27T09:37:55.774Z,20.00
2019-02-27T09:40:29.847Z,21.07
2019-02-27T09:42:58.543Z,21.00
2019-02-27T09:45:35.298Z,21.20
2019-02-27T09:48:04.428Z,21.62
2019-02-27T09:50:34.460Z,20.68
2019-02-27T09:53:03.647Z,20.70
2019-02-27T09:55:33.184Z,20.82
2019-02-27T09:58:01.788Z,21.52
2019-02-27T10:00:37.839Z,20.70
2019-02-27T10:03:06.474Z,22.20
2019-02-27T10:05:36.642Z,23.35
2019-02-27T10:08:07.569Z,21.62
2019-02-27T10:10:36.409Z,21.68
2019-02-27T10:13:04.853Z,21.23
2019-02-27T10:15:34.514Z,20.23
2019-02-27T10:18:03.137Z,20.32
2019-02-27T10:20:31.764Z,22.65
2019-02-27T10:23:00.278Z,21.57
2019-02-27T10:25:28.794Z,22.13
2019-02-27T10:27:57.330Z,22.52
2019-02-27T10:30:25.783Z,20.75
2019-02-27T10:32:54.292Z,19.87
2019-02-27T10:35:23.084Z,21.07
2019-02-27T10:37:54.291Z,21.55
2019-02-27T10:40:23.551Z,21.95
2019-02-27T10:42:52.025Z,21.85
2019-02-27T10:45:20.559Z,21.35
2019-02-27T10:47:48.993Z,23.60
2019-02-27T10:50:17.451Z,23.30
2019-02-27T10:52:45.914Z,23.40
2019-02-27T10:55:19.145Z,22.20
2019-02-27T10:57:47.640Z,22.60
2019-02-27T11:00:26.057Z,23.10
2019-02-27T11:02:54.493Z,22.90
2019-02-27T11:05:23.569Z,21.87
2019-02-27T11:07:53.049Z,20.62
2019-02-27T11:10:22.239Z,21.93
2019-02-27T11:12:50.755Z,22.90
2019-02-27T11:15:23.238Z,23.73
2019-02-27T11:17:51.677Z,22.15
2019-02-27T11:20:21.186Z,21.52
2019-02-27T11:22:50.509Z,22.05
2019-02-27T11:25:27.436Z,21.25
2019-02-27T11:27:55.884Z,21.52
2019-02-27T11:30:30.211Z,21.42
2019-02-27T11:32:58.906Z,21.35
2019-02-27T11:35:27.497Z,21.45
2019-02-27T11:37:55.939Z,20.27
2019-02-27T11:40:25.753Z,20.25
2019-02-27T11:42:54.185Z,21.48
2019-02-27T11:45:24.690Z,20.85
2019-02-27T11:47:52.788Z,20.75
2019-02-27T11:50:21.290Z,20.37
2019-02-27T11:52:50.170Z,20.23
2019-02-27T11:55:20.723Z,21.62
2019-02-27T11:57:49.381Z,19.57
2019-02-27T12:00:27.743Z,19.00
2019-02-27T12:02:56.532Z,18.70
2019-02-27T12:05:30.819Z,19.23
2019-02-27T12:07:56.148Z,19.10
2019-02-27T12:10:33.544Z,19.20
2019-02-27T12:13:01.979Z,18.75
2019-02-27T12:15:30.564Z,18.62
2019-02-27T12:18:00.489Z,18.32
2019-02-27T12:20:29.306Z,16.93
2019-02-27T12:22:57.727Z,16.20
2019-02-27T12:25:29.150Z,16.55
2019-02-27T12:27:56.850Z,15.90
2019-02-27T12:30:27.303Z,14.43
2019-02-27T12:32:56.955Z,14.35
2019-02-27T12:35:30.969Z,13.90
2019-02-27T12:37:59.401Z,13.70
2019-02-27T12:40:27.858Z,13.50
2019-02-27T12:42:56.300Z,13.95
2019-02-27T12:45:29.858Z,11.78
2019-02-27T12:47:58.585Z,12.85
2019-02-27T12:50:31.178Z,12.85
2019-02-27T12:52:58.619Z,11.85
2019-02-27T12:55:28.206Z,12.10
2019-02-27T12:57:56.675Z,13.30
2019-02-27T13:00:32.912Z,12.98
2019-02-27T13:03:01.361Z,14.07
2019-02-27T13:05:29.895Z,12.73
2019-02-27T13:07:58.434Z,13.65
2019-02-27T13:10:30.424Z,12.00
2019-02-27T13:12:57.702Z,12.65
2019-02-27T13:15:27.577Z,12.73
2019-02-27T13:17:57.391Z,12.37
2019-02-27T13:20:28.196Z,12.50
2019-02-27T13:22:56.651Z,12.90
2019-02-27T13:25:25.502Z,12.90
2019-02-27T13:27:54.092Z,12.20
2019-02-27T13:30:24.636Z,13.53
2019-02-27T13:32:53.076Z,13.38
2019-02-27T13:35:23.139Z,12.43
2019-02-27T13:37:52.099Z,11.55
2019-02-27T13:40:22.687Z,12.47
2019-02-27T13:42:53.391Z,11.75
2019-02-27T13:45:28.846Z,11.93
2019-02-27T13:47:59.000Z,13.58
2019-02-27T13:50:27.515Z,11.95
2019-02-27T13:52:55.991Z,14.43
2019-02-27T13:55:24.662Z,12.60
2019-02-27T13:57:53.111Z,12.88
2019-02-27T14:00:32.635Z,12.75
2019-02-27T14:03:01.099Z,12.50
2019-02-27T14:05:29.717Z,13.38
2019-02-27T14:07:59.788Z,13.20
2019-02-27T14:10:32.454Z,13.53
2019-02-27T14:13:01.092Z,13.03
2019-02-27T14:15:31.375Z,13.50
2019-02-27T14:17:59.837Z,13.83
2019-02-27T14:20:29.171Z,12.85
2019-02-27T14:22:58.294Z,13.48
2019-02-27T14:25:33.284Z,12.85
2019-02-27T14:28:01.566Z,12.05
2019-02-27T14:30:38.769Z,11.28
2019-02-27T14:33:07.236Z,10.43
2019-02-27T14:35:36.649Z,10.20
2019-02-27T14:38:05.321Z,10.58
2019-02-27T14:40:37.650Z,9.28
2019-02-27T14:43:04.267Z,10.35
2019-02-27T14:45:32.695Z,9.70
2019-02-27T14:48:01.154Z,9.70
2019-02-27T14:50:33.558Z,8.75
2019-02-27T14:53:00.196Z,8.75
2019-02-27T14:55:28.629Z,8.80
2019-02-27T14:57:57.068Z,9.28
2019-02-27T15:00:30.594Z,9.23
2019-02-27T15:02:59.411Z,9.10
2019-02-27T15:05:27.857Z,9.48
2019-02-27T15:07:56.444Z,8.95
2019-02-27T15:10:25.121Z,9.10
2019-02-27T15:12:55.026Z,7.95
2019-02-27T15:15:29.151Z,8.15
2019-02-27T15:17:57.752Z,7.92
2019-02-27T15:20:30.160Z,8.18
2019-02-27T15:22:58.592Z,7.12
2019-02-27T15:25:27.887Z,7.92
2019-02-27T15:27:58.923Z,8.80
2019-02-27T15:30:31.741Z,7.97
2019-02-27T15:33:03.568Z,7.78
2019-02-27T15:35:30.345Z,7.85
2019-02-27T15:37:58.978Z,6.95
2019-02-27T15:40:33.132Z,6.90
2019-02-27T15:43:10.651Z,6.95
2019-02-27T15:45:31.752Z,9.18
2019-02-27T15:48:00.185Z,8.45
2019-02-27T15:50:33.445Z,15.13
2019-02-27T15:53:01.899Z,8.03
2019-02-27T15:55:34.236Z,8.08
2019-02-27T15:58:00.497Z,8.20
2019-02-27T16:00:30.270Z,8.40
2019-02-27T16:02:58.713Z,7.72
2019-02-27T16:05:30.500Z,7.60
2019-02-27T16:07:57.333Z,10.43
2019-02-27T16:10:27.019Z,10.88
2019-02-27T16:12:59.824Z,8.03
2019-02-27T16:15:25.790Z,7.47
2019-02-27T16:17:54.236Z,6.40
2019-02-27T16:20:26.790Z,7.05
2019-02-27T16:22:55.361Z,7.15
2019-02-27T16:25:28.180Z,7.58
2019-02-27T16:27:56.631Z,7.45
2019-02-27T16:30:32.293Z,7.67
2019-02-27T16:32:58.387Z,7.47
2019-02-27T16:35:26.988Z,7.72
2019-02-27T16:37:57.611Z,8.73
2019-02-27T16:40:27.261Z,7.58
2019-02-27T16:42:55.755Z,7.80
2019-02-27T16:45:32.299Z,8.10
2019-02-27T16:47:58.424Z,22.77
2019-02-27T16:50:28.203Z,24.90
2019-02-27T16:52:56.834Z,12.95
2019-02-27T16:55:26.714Z,9.70
2019-02-27T16:57:57.472Z,12.45
2019-02-27T17:00:38.508Z,13.08
2019-02-27T17:03:26.301Z,14.38
2019-02-27T17:05:54.751Z,14.63
2019-02-27T17:08:23.201Z,12.95
2019-02-27T17:10:52.081Z,11.57
2019-02-27T17:13:21.079Z,12.13
2019-02-27T17:15:49.521Z,10.03
2019-02-27T17:18:17.991Z,54.58
2019-02-27T17:20:47.340Z,20.00
2019-02-27T17:23:15.862Z,8.05
2019-02-27T17:25:44.315Z,6.87
2019-02-27T17:28:12.755Z,5.87
2019-02-27T17:30:41.185Z,5.87
2019-02-27T17:33:09.630Z,5.90
2019-02-27T17:35:38.099Z,6.30
2019-02-27T17:38:06.549Z,6.10
2019-02-27T17:40:37.572Z,6.15
2019-02-27T17:43:06.811Z,5.72
2019-02-27T17:45:35.540Z,6.83
2019-02-27T17:48:04.062Z,6.80
2019-02-27T17:50:32.500Z,7.12
2019-02-27T17:53:00.949Z,7.25
2019-02-27T17:55:29.380Z,7.12
2019-02-27T17:57:59.168Z,7.12
2019-02-27T18:00:33.455Z,6.25
2019-02-27T18:03:04.889Z,6.80
2019-02-27T18:05:32.073Z,6.97
2019-02-27T18:08:00.566Z,6.50
2019-02-27T18:10:29.029Z,7.20
2019-02-27T18:12:58.829Z,6.67
2019-02-27T18:15:27.653Z,5.35
2019-02-27T18:17:56.091Z,5.60
2019-02-27T18:20:25.661Z,6.22
2019-02-27T18:22:54.253Z,5.20
2019-02-27T18:25:46.672Z,5.65
2019-02-27T18:28:15.131Z,5.80
2019-02-27T18:30:43.572Z,7.47
2019-02-27T18:33:14.264Z,53.92
2019-02-27T18:35:43.753Z,18.73
2019-02-27T18:38:12.334Z,9.25
2019-02-27T18:40:43.686Z,6.58
2019-02-27T18:43:12.205Z,6.37
2019-02-27T18:45:42.741Z,7.22
2019-02-27T18:48:11.237Z,5.50
2019-02-27T18:50:41.772Z,4.62
2019-02-27T18:53:13.075Z,4.83
2019-02-27T18:55:40.529Z,5.03
2019-02-27T18:58:12.751Z,5.42
2019-02-27T19:00:41.902Z,33.40
2019-02-27T19:03:12.069Z,12.55
2019-02-27T19:05:42.123Z,14.97
2019-02-27T19:08:10.959Z,9.85
2019-02-27T19:10:42.765Z,59.25
2019-02-27T19:13:11.748Z,19.70
2019-02-27T19:15:45.305Z,8.60
2019-02-27T19:18:13.091Z,12.53
2019-02-27T19:20:46.638Z,7.72
2019-02-27T19:23:17.820Z,7.70
2019-02-27T19:25:47.770Z,6.35
2019-02-27T19:28:16.397Z,8.48
2019-02-27T19:30:45.909Z,57.83
2019-02-27T19:33:14.525Z,50.63
2019-02-27T19:35:43.164Z,17.33
2019-02-27T19:38:13.116Z,9.10
2019-02-27T19:40:42.013Z,7.72
2019-02-27T19:43:10.566Z,9.17
2019-02-27T19:45:39.081Z,9.48
2019-02-27T19:48:07.504Z,7.62
2019-02-27T19:50:35.941Z,7.78
2019-02-27T19:53:06.932Z,11.68
2019-02-27T19:55:34.631Z,12.43
2019-02-27T19:58:03.167Z,9.13
2019-02-27T20:00:35.032Z,11.38
2019-02-27T20:03:03.176Z,12.95
2019-02-27T20:05:33.200Z,13.32
2019-02-27T20:08:02.583Z,12.60
2019-02-27T20:10:33.285Z,14.33
2019-02-27T20:13:01.457Z,13.53
2019-02-27T20:15:29.991Z,13.57
2019-02-27T20:17:58.421Z,12.23
2019-02-27T20:20:27.012Z,12.47
2019-02-27T20:22:56.085Z,14.38
2019-02-27T20:25:26.412Z,12.73
2019-02-27T20:27:57.868Z,13.62
2019-02-27T20:30:25.309Z,13.77
2019-02-27T20:32:54.087Z,14.27
2019-02-27T20:35:22.707Z,13.13
2019-02-27T20:37:51.377Z,13.53
2019-02-27T20:40:40.726Z,13.13
2019-02-27T20:43:09.241Z,13.70
2019-02-27T20:45:40.055Z,16.10
2019-02-27T20:48:07.884Z,13.63
2019-02-27T20:50:41.880Z,12.73
2019-02-27T20:53:12.983Z,12.43
2019-02-27T20:55:41.488Z,12.43
2019-02-27T20:58:09.982Z,13.13
2019-02-27T21:00:38.440Z,14.27
2019-02-27T21:03:06.953Z,12.70
2019-02-27T21:05:42.011Z,12.47
2019-02-27T21:08:10.553Z,13.57
2019-02-27T21:10:39.014Z,13.07
2019-02-27T21:13:07.438Z,12.27
2019-02-27T21:15:35.949Z,12.40
2019-02-27T21:18:04.377Z,12.97
2019-02-27T21:20:33.331Z,11.90
2019-02-27T21:23:01.836Z,12.53
2019-02-27T21:25:30.285Z,12.40
2019-02-27T21:27:58.733Z,11.67
2019-02-27T21:30:27.193Z,12.10
2019-02-27T21:32:55.630Z,12.00
2019-02-27T21:35:28.677Z,12.00
2019-02-27T21:37:54.413Z,11.87
2019-02-27T21:40:22.856Z,12.70
2019-02-27T21:42:52.004Z,12.57
2019-02-27T21:45:21.680Z,11.50
2019-02-27T21:47:51.806Z,10.77
2019-02-27T21:50:22.465Z,11.40
2019-02-27T21:52:54.254Z,11.87
2019-02-27T21:55:21.121Z,12.23
2019-02-27T21:57:49.554Z,11.03
2019-02-27T22:00:27.842Z,11.07
2019-02-27T22:02:58.201Z,11.80
2019-02-27T22:05:26.717Z,17.30
2019-02-27T22:07:55.220Z,15.37
2019-02-27T22:10:23.745Z,11.40
2019-02-27T22:12:52.176Z,11.30
2019-02-27T22:15:26.190Z,10.77
2019-02-27T22:17:54.621Z,11.90
2019-02-27T22:20:25.778Z,11.23
2019-02-27T22:22:53.378Z,10.57
2019-02-27T22:25:21.905Z,11.40
2019-02-27T22:27:50.343Z,12.33
2019-02-27T22:30:21.201Z,11.57
2019-02-27T22:32:49.796Z,11.60
2019-02-27T22:35:18.422Z,10.70
2019-02-27T22:37:51.304Z,11.23
2019-02-27T22:40:23.744Z,10.90
2019-02-27T22:42:52.193Z,12.10
2019-02-27T22:45:21.113Z,11.53
2019-02-27T22:47:50.418Z,11.30
2019-02-27T22:50:22.361Z,11.80
2019-02-27T22:52:54.739Z,11.67
2019-02-27T22:55:21.778Z,10.97
2019-02-27T22:57:50.209Z,11.40
2019-02-27T23:00:55.879Z,11.07
2019-02-27T23:03:29.589Z,11.30
2019-02-27T23:05:59.583Z,11.00
2019-02-27T23:08:28.068Z,11.60
2019-02-27T23:10:57.170Z,11.20
2019-02-27T23:13:25.610Z,11.20
2019-02-27T23:15:58.030Z,9.83
2019-02-27T23:18:24.217Z,10.40
2019-02-27T23:20:55.426Z,10.30
2019-02-27T23:23:22.902Z,10.27
2019-02-27T23:25:51.417Z,11.67
2019-02-27T23:28:19.853Z,10.53
2019-02-27T23:30:48.456Z,11.27
2019-02-27T23:33:16.883Z,30.93
2019-02-27T23:35:47.403Z,14.30
2019-02-27T23:38:15.627Z,11.03
2019-02-27T23:40:44.073Z,10.70
2019-02-27T23:43:12.505Z,9.80
2019-02-27T23:45:41.397Z,9.17
2019-02-27T23:48:11.121Z,10.37
2019-02-27T23:50:42.600Z,10.07
2019-02-27T23:53:09.720Z,10.00
2019-02-27T23:55:44.198Z,9.60
2019-02-27T23:58:08.317Z,8.73
